createdAt,value
2022-08-07T00:06:03.852Z,18.10
2022-08-07T00:16:08.553Z,17.90
2022-08-07T00:26:49.321Z,17.70
2022-08-07T00:36:43.613Z,17.50
2022-08-07T00:46:47.235Z,17.60
2022-08-07T00:56:49.876Z,17.60
2022-08-07T01:06:52.814Z,17.20
2022-08-07T01:16:57.795Z,17.30
2022-08-07T01:27:04.333Z,17.30
2022-08-07T01:37:09.906Z,17.20
2022-08-07T01:48:20.351Z,17.00
2022-08-07T01:58:06.944Z,17.10
2022-08-07T02:08:14.169Z,16.70
2022-08-07T02:18:17.855Z,16.80
2022-08-07T02:28:24.404Z,16.60
2022-08-07T02:38:39.195Z,16.80
2022-08-07T02:48:54.987Z,16.60
2022-08-07T02:58:59.237Z,16.60
2022-08-07T03:09:05.195Z,16.40
2022-08-07T03:19:09.356Z,16.30
2022-08-07T03:29:14.891Z,16.00
2022-08-07T03:39:45.717Z,15.90
2022-08-07T03:49:52.531Z,16.10
2022-08-07T04:00:01.719Z,15.80
2022-08-07T04:10:19.685Z,15.90
2022-08-07T04:20:23.806Z,15.60
2022-08-07T04:30:39.441Z,15.80
2022-08-07T04:40:56.689Z,15.60
2022-08-07T04:51:39.391Z,15.80
2022-08-07T05:02:20.626Z,15.60
2022-08-07T05:12:53.013Z,15.70
2022-08-07T05:23:06.561Z,15.60
2022-08-07T05:33:22.471Z,15.80
2022-08-07T05:44:07.791Z,15.80
2022-08-07T05:54:13.457Z,16.00
2022-08-07T06:04:12.688Z,16.20
2022-08-07T06:14:28.703Z,16.50
2022-08-07T06:24:52.616Z,16.60
2022-08-07T06:35:02.569Z,16.80
2022-08-07T06:45:18.213Z,17.00
2022-08-07T06:56:00.033Z,17.20
2022-08-07T07:06:05.362Z,17.70
2022-08-07T07:16:21.312Z,17.90
2022-08-07T07:26:35.156Z,18.70
2022-08-07T07:36:41.527Z,19.90
2022-08-07T07:46:56.098Z,21.00
2022-08-07T07:57:04.831Z,22.00
2022-08-07T08:07:07.862Z,22.50
2022-08-07T08:17:55.398Z,23.20
2022-08-07T08:27:56.713Z,23.70
2022-08-07T08:38:05.541Z,24.30
2022-08-07T08:48:41.827Z,24.90
2022-08-07T08:58:59.191Z,25.20
2022-08-07T09:09:36.645Z,26.10
2022-08-07T09:20:24.938Z,26.40
2022-08-07T09:30:35.665Z,26.90
2022-08-07T09:41:01.666Z,27.20
2022-08-07T09:52:09.829Z,27.20
2022-08-07T10:02:33.290Z,27.70
2022-08-07T10:12:56.429Z,28.30
2022-08-07T10:24:04.199Z,28.60
2022-08-07T10:34:15.386Z,29.00
2022-08-07T10:44:51.128Z,29.00
2022-08-07T10:55:26.802Z,29.40
2022-08-07T11:06:06.937Z,29.80
2022-08-07T11:16:30.745Z,30.00
2022-08-07T11:26:52.048Z,30.30
2022-08-07T11:37:58.515Z,30.10
2022-08-07T11:48:29.643Z,30.70
2022-08-07T11:58:41.531Z,31.00
2022-08-07T12:09:07.509Z,30.70
2022-08-07T12:20:02.593Z,31.20
2022-08-07T12:30:11.024Z,31.40
2022-08-07T12:40:44.848Z,31.60
2022-08-07T12:51:13.031Z,32.00
2022-08-07T13:01:32.624Z,31.80
2022-08-07T13:12:15.652Z,32.00
2022-08-07T13:22:34.844Z,32.40
2022-08-07T13:32:42.497Z,32.00
2022-08-07T13:42:46.670Z,32.20
2022-08-07T13:52:51.010Z,32.10
2022-08-07T14:02:55.833Z,32.30
2022-08-07T14:13:05.571Z,32.00
2022-08-07T14:24:00.130Z,32.10
2022-08-07T14:33:56.130Z,31.90
2022-08-07T14:44:11.881Z,31.70
2022-08-07T14:54:31.200Z,31.90
2022-08-07T15:04:53.253Z,31.90
2022-08-07T15:25:43.790Z,31.40
2022-08-07T15:36:01.864Z,30.90
2022-08-07T15:46:45.892Z,30.50
2022-08-07T15:56:54.989Z,30.70
2022-08-07T16:07:04.744Z,30.80
2022-08-07T16:18:00.762Z,30.80
2022-08-07T16:29:18.227Z,30.80
2022-08-07T16:39:01.153Z,30.40
2022-08-07T16:50:26.727Z,30.20
2022-08-07T17:00:15.448Z,29.30
2022-08-07T17:10:35.770Z,28.50
2022-08-07T17:20:39.248Z,27.70
2022-08-07T17:31:43.978Z,27.10
2022-08-07T17:42:04.786Z,26.60
2022-08-07T17:52:34.031Z,26.30
2022-08-07T18:02:57.113Z,26.10
2022-08-07T18:13:20.446Z,25.70
2022-08-07T18:23:57.304Z,25.40
2022-08-07T18:34:37.745Z,25.10
2022-08-07T18:45:40.008Z,24.80
2022-08-07T18:55:43.192Z,24.50
2022-08-07T19:06:04.929Z,24.20
2022-08-07T19:17:01.246Z,23.80
2022-08-07T19:28:29.828Z,23.50
2022-08-07T19:37:59.537Z,23.00
2022-08-07T19:48:02.790Z,22.60
2022-08-07T19:58:12.769Z,22.20
2022-08-07T20:08:32.208Z,22.00
2022-08-07T20:18:36.584Z,21.60
2022-08-07T20:28:46.790Z,21.50
2022-08-07T20:39:00.759Z,21.30
2022-08-07T20:49:59.819Z,21.10
2022-08-07T21:00:08.145Z,21.00
2022-08-07T21:10:05.613Z,20.90
2022-08-07T21:20:30.400Z,20.80
2022-08-07T21:30:53.272Z,20.70
2022-08-07T21:41:10.842Z,20.60
2022-08-07T21:51:32.595Z,20.50
2022-08-07T22:02:10.385Z,20.40
2022-08-07T22:12:18.929Z,20.10
2022-08-07T22:22:44.642Z,20.00
2022-08-07T22:33:09.393Z,19.90
2022-08-07T22:43:33.811Z,19.60
2022-08-07T22:54:06.826Z,19.50
2022-08-07T23:04:56.869Z,19.50
2022-08-07T23:16:06.451Z,19.50
2022-08-07T23:26:24.969Z,19.40
2022-08-07T23:37:20.176Z,19.30
2022-08-07T23:47:17.188Z,19.20
2022-08-07T23:57:44.388Z,19.20
